LGL8211 ELLX-LFMT
Flight info
| Callsign | LGL8211 |
|---|---|
| Flight time | N/A |
| Altitude | FL230 |
| Route | GTQ3P/06 GTQ A242 POGOL LASAT MOROK GILIR GEVEA INCUS BALSI ETIDO KURIR MTL MOLEN NG NG7T |
| Aircraft | DH8D/M-SDE2E3FGRY/H |
Departure
| Time | N/A |
|---|---|
| Airport | Luxembourg-Findel International Airport (ELLX) |
Arrival
| Time | 2026-05-05 20:21 |
|---|---|
| Airport | Montpellier-Méditerranée Airport (LFMT) |
| Time | Latitude | Longitude | Altitude | Speed | Heading |
|---|---|---|---|---|---|
| 2026-05-05 19:19 | 47.60483 | 6.66201 | 22857 ft | 322 kts | 183° |
| 2026-05-05 19:19 | 47.58360 | 6.66122 | 22859 ft | 321 kts | 183° |
| 2026-05-05 19:20 | 47.56185 | 6.66041 | 22861 ft | 321 kts | 183° |
| 2026-05-05 19:20 | 47.53977 | 6.65960 | 22862 ft | 322 kts | 183° |
| 2026-05-05 19:20 | 47.51727 | 6.65870 | 22862 ft | 323 kts | 183° |
| 2026-05-05 19:20 | 47.49503 | 6.65784 | 22859 ft | 322 kts | 183° |
| 2026-05-05 19:21 | 47.47320 | 6.65703 | 22860 ft | 322 kts | 183° |
| 2026-05-05 19:21 | 47.45076 | 6.65622 | 22863 ft | 323 kts | 183° |
| 2026-05-05 19:21 | 47.42841 | 6.65541 | 22862 ft | 324 kts | 183° |
| 2026-05-05 19:21 | 47.40621 | 6.65352 | 22851 ft | 323 kts | 190° |
| 2026-05-05 19:22 | 47.38610 | 6.64016 | 22885 ft | 319 kts | 216° |
| 2026-05-05 19:22 | 47.36907 | 6.61938 | 22866 ft | 321 kts | 219° |
| 2026-05-05 19:22 | 47.35180 | 6.59770 | 22866 ft | 322 kts | 220° |
| 2026-05-05 19:22 | 47.33512 | 6.57663 | 22871 ft | 321 kts | 220° |
| 2026-05-05 19:23 | 47.31839 | 6.55554 | 22876 ft | 321 kts | 220° |
| 2026-05-05 19:23 | 47.30140 | 6.53417 | 22882 ft | 321 kts | 220° |
| 2026-05-05 19:23 | 47.28449 | 6.51293 | 22882 ft | 322 kts | 220° |
| 2026-05-05 19:23 | 47.26775 | 6.49193 | 22882 ft | 322 kts | 220° |
| 2026-05-05 19:24 | 47.25054 | 6.47036 | 22881 ft | 322 kts | 220° |
| 2026-05-05 19:24 | 47.23402 | 6.44970 | 22885 ft | 322 kts | 220° |
| 2026-05-05 19:24 | 47.21657 | 6.42789 | 22887 ft | 323 kts | 220° |
| 2026-05-05 19:24 | 47.19946 | 6.40652 | 22885 ft | 323 kts | 220° |
| 2026-05-05 19:25 | 47.18255 | 6.38542 | 22885 ft | 322 kts | 220° |
| 2026-05-05 19:25 | 47.16552 | 6.36420 | 22887 ft | 323 kts | 220° |
| 2026-05-05 19:25 | 47.14896 | 6.34357 | 22887 ft | 322 kts | 219° |
| 2026-05-05 19:25 | 47.13236 | 6.32293 | 22890 ft | 322 kts | 219° |
| 2026-05-05 19:26 | 47.11580 | 6.30236 | 22886 ft | 322 kts | 219° |
| 2026-05-05 19:26 | 47.09871 | 6.28115 | 22885 ft | 323 kts | 219° |
| 2026-05-05 19:26 | 47.08163 | 6.25996 | 22883 ft | 321 kts | 219° |
| 2026-05-05 19:26 | 47.06363 | 6.24158 | 22853 ft | 320 kts | 205° |
| 2026-05-05 19:27 | 47.04190 | 6.23468 | 22925 ft | 318 kts | 188° |
| 2026-05-05 19:27 | 47.02057 | 6.23173 | 22906 ft | 319 kts | 187° |
| 2026-05-05 19:27 | 46.99857 | 6.22884 | 22895 ft | 319 kts | 187° |
| 2026-05-05 19:27 | 46.97664 | 6.22601 | 22891 ft | 318 kts | 187° |
| 2026-05-05 19:28 | 46.95434 | 6.22310 | 22892 ft | 320 kts | 187° |
| 2026-05-05 19:28 | 46.93228 | 6.22021 | 22895 ft | 320 kts | 187° |
| 2026-05-05 19:28 | 46.91000 | 6.21728 | 22895 ft | 321 kts | 187° |
| 2026-05-05 19:28 | 46.88985 | 6.21463 | 22896 ft | 320 kts | 187° |
| 2026-05-05 19:29 | 46.86738 | 6.21166 | 22893 ft | 318 kts | 187° |
| 2026-05-05 19:29 | 46.84495 | 6.20869 | 22894 ft | 320 kts | 187° |
| 2026-05-05 19:29 | 46.82301 | 6.20578 | 22894 ft | 319 kts | 187° |
| 2026-05-05 19:29 | 46.80119 | 6.20289 | 22900 ft | 318 kts | 187° |
| 2026-05-05 19:30 | 46.77916 | 6.19997 | 22901 ft | 318 kts | 187° |
| 2026-05-05 19:30 | 46.75734 | 6.19709 | 22899 ft | 318 kts | 187° |
| 2026-05-05 19:30 | 46.73546 | 6.19420 | 22902 ft | 316 kts | 187° |
| 2026-05-05 19:30 | 46.71575 | 6.19159 | 22905 ft | 317 kts | 187° |
| 2026-05-05 19:31 | 46.69256 | 6.18851 | 22902 ft | 316 kts | 188° |
| 2026-05-05 19:31 | 46.67082 | 6.18565 | 22904 ft | 316 kts | 187° |
| 2026-05-05 19:31 | 46.64898 | 6.18278 | 22905 ft | 315 kts | 188° |
| 2026-05-05 19:31 | 46.62705 | 6.17989 | 22908 ft | 316 kts | 188° |
| 2026-05-05 19:32 | 46.60510 | 6.17700 | 22907 ft | 316 kts | 188° |
| 2026-05-05 19:32 | 46.58306 | 6.17410 | 22908 ft | 316 kts | 188° |
| 2026-05-05 19:32 | 46.56108 | 6.17121 | 22907 ft | 316 kts | 188° |
| 2026-05-05 19:32 | 46.53911 | 6.16832 | 22903 ft | 316 kts | 188° |
| 2026-05-05 19:33 | 46.51774 | 6.16552 | 22907 ft | 316 kts | 188° |
| 2026-05-05 19:33 | 46.49538 | 6.16259 | 22909 ft | 314 kts | 188° |
| 2026-05-05 19:33 | 46.47353 | 6.15972 | 22908 ft | 314 kts | 188° |
| 2026-05-05 19:33 | 46.45160 | 6.15684 | 22909 ft | 314 kts | 188° |
| 2026-05-05 19:34 | 46.42970 | 6.15397 | 22909 ft | 315 kts | 188° |
| 2026-05-05 19:34 | 46.40763 | 6.15108 | 22915 ft | 315 kts | 188° |
| 2026-05-05 19:34 | 46.38565 | 6.14819 | 22912 ft | 315 kts | 188° |
| 2026-05-05 19:35 | 46.34225 | 6.14251 | 22915 ft | 316 kts | 188° |
| 2026-05-05 19:35 | 46.32030 | 6.13963 | 22915 ft | 317 kts | 188° |
| 2026-05-05 19:35 | 46.29873 | 6.13681 | 22913 ft | 318 kts | 188° |
| 2026-05-05 19:35 | 46.27623 | 6.13388 | 22914 ft | 318 kts | 188° |
| 2026-05-05 19:36 | 46.25399 | 6.13097 | 22914 ft | 319 kts | 188° |
| 2026-05-05 19:36 | 46.23196 | 6.12707 | 22913 ft | 318 kts | 191° |
| 2026-05-05 19:36 | 46.20996 | 6.12196 | 22912 ft | 318 kts | 192° |
| 2026-05-05 19:36 | 46.18815 | 6.11689 | 22911 ft | 318 kts | 192° |
| 2026-05-05 19:37 | 46.16626 | 6.11184 | 22914 ft | 319 kts | 192° |
| 2026-05-05 19:37 | 46.14515 | 6.10321 | 22897 ft | 316 kts | 206° |
| 2026-05-05 19:37 | 46.12605 | 6.08740 | 22907 ft | 317 kts | 212° |
| 2026-05-05 19:37 | 46.10715 | 6.07097 | 22914 ft | 316 kts | 212° |
| 2026-05-05 19:38 | 46.08867 | 6.05489 | 22914 ft | 315 kts | 212° |
| 2026-05-05 19:38 | 46.06997 | 6.03867 | 22914 ft | 314 kts | 212° |
| 2026-05-05 19:38 | 46.05124 | 6.02248 | 22910 ft | 313 kts | 212° |
| 2026-05-05 19:38 | 46.03264 | 6.00646 | 22910 ft | 314 kts | 212° |
| 2026-05-05 19:39 | 46.01390 | 5.99034 | 22912 ft | 315 kts | 212° |
| 2026-05-05 19:39 | 45.99503 | 5.97413 | 22912 ft | 316 kts | 212° |
| 2026-05-05 19:39 | 45.95693 | 5.94149 | 22911 ft | 315 kts | 212° |
| 2026-05-05 19:40 | 45.93795 | 5.92527 | 22912 ft | 316 kts | 212° |
| 2026-05-05 19:40 | 45.92535 | 5.91451 | 22909 ft | 316 kts | 212° |
| 2026-05-05 19:40 | 45.89996 | 5.89284 | 22908 ft | 316 kts | 212° |
| 2026-05-05 19:40 | 45.88136 | 5.87699 | 22906 ft | 316 kts | 212° |
| 2026-05-05 19:41 | 45.86246 | 5.86090 | 22909 ft | 316 kts | 211° |
| 2026-05-05 19:41 | 45.84330 | 5.84461 | 22905 ft | 316 kts | 212° |
| 2026-05-05 19:41 | 45.82424 | 5.82841 | 22902 ft | 317 kts | 212° |
| 2026-05-05 19:41 | 45.80504 | 5.81255 | 22901 ft | 318 kts | 211° |
| 2026-05-05 19:42 | 45.78584 | 5.79665 | 22898 ft | 317 kts | 212° |
| 2026-05-05 19:42 | 45.76681 | 5.78033 | 22896 ft | 318 kts | 212° |
| 2026-05-05 19:42 | 45.74765 | 5.76393 | 22895 ft | 317 kts | 212° |
| 2026-05-05 19:42 | 45.72863 | 5.74771 | 22894 ft | 317 kts | 212° |
| 2026-05-05 19:43 | 45.71049 | 5.73227 | 22905 ft | 314 kts | 212° |
| 2026-05-05 19:43 | 45.69150 | 5.71616 | 22913 ft | 315 kts | 212° |
| 2026-05-05 19:43 | 45.67253 | 5.70009 | 22914 ft | 316 kts | 212° |
| 2026-05-05 19:43 | 45.65352 | 5.68401 | 22914 ft | 317 kts | 212° |
| 2026-05-05 19:44 | 45.64059 | 5.67308 | 22915 ft | 317 kts | 212° |
| 2026-05-05 19:44 | 45.61513 | 5.65160 | 22914 ft | 317 kts | 212° |
| 2026-05-05 19:44 | 45.59594 | 5.63543 | 22916 ft | 318 kts | 212° |
| 2026-05-05 19:44 | 45.57672 | 5.61926 | 22917 ft | 318 kts | 212° |
| 2026-05-05 19:45 | 45.55751 | 5.60311 | 22917 ft | 318 kts | 212° |
| 2026-05-05 19:45 | 45.53838 | 5.58704 | 22918 ft | 318 kts | 212° |
| 2026-05-05 19:45 | 45.52556 | 5.57628 | 22919 ft | 317 kts | 212° |
| 2026-05-05 19:45 | 45.50000 | 5.55485 | 22922 ft | 317 kts | 212° |
| 2026-05-05 19:46 | 45.48094 | 5.53889 | 22925 ft | 317 kts | 212° |
| 2026-05-05 19:46 | 45.46188 | 5.52295 | 22927 ft | 317 kts | 212° |
| 2026-05-05 19:46 | 45.44269 | 5.50690 | 22930 ft | 317 kts | 212° |
| 2026-05-05 19:46 | 45.42362 | 5.49096 | 22932 ft | 317 kts | 212° |
| 2026-05-05 19:47 | 45.40442 | 5.47493 | 22933 ft | 317 kts | 212° |
| 2026-05-05 19:47 | 45.39156 | 5.46420 | 22934 ft | 317 kts | 212° |
| 2026-05-05 19:47 | 45.36594 | 5.44284 | 22937 ft | 317 kts | 212° |
| 2026-05-05 19:47 | 45.34678 | 5.42688 | 22939 ft | 317 kts | 212° |
| 2026-05-05 19:48 | 45.32759 | 5.41090 | 22940 ft | 318 kts | 212° |
| 2026-05-05 19:48 | 45.31489 | 5.40033 | 22939 ft | 318 kts | 212° |
| 2026-05-05 19:48 | 45.28936 | 5.37911 | 22939 ft | 318 kts | 212° |
| 2026-05-05 19:48 | 45.27639 | 5.36834 | 22939 ft | 317 kts | 212° |
| 2026-05-05 19:49 | 45.25174 | 5.34789 | 22938 ft | 316 kts | 211° |
| 2026-05-05 19:49 | 45.23878 | 5.33715 | 22937 ft | 316 kts | 211° |
| 2026-05-05 19:49 | 45.21333 | 5.31607 | 22937 ft | 316 kts | 211° |
| 2026-05-05 19:49 | 45.19431 | 5.30033 | 22933 ft | 316 kts | 211° |
| 2026-05-05 19:50 | 45.17583 | 5.28506 | 22931 ft | 315 kts | 211° |
| 2026-05-05 19:50 | 45.15791 | 5.27025 | 22928 ft | 314 kts | 211° |
| 2026-05-05 19:50 | 45.13858 | 5.25429 | 22929 ft | 314 kts | 211° |
| 2026-05-05 19:50 | 45.11965 | 5.23866 | 22928 ft | 315 kts | 211° |
| 2026-05-05 19:51 | 45.10060 | 5.22296 | 22925 ft | 314 kts | 211° |
| 2026-05-05 19:51 | 45.08178 | 5.20746 | 22922 ft | 314 kts | 211° |
| 2026-05-05 19:51 | 45.06296 | 5.19197 | 22920 ft | 314 kts | 211° |
| 2026-05-05 19:51 | 45.04409 | 5.17646 | 22918 ft | 314 kts | 211° |
| 2026-05-05 19:52 | 45.03141 | 5.16604 | 22918 ft | 314 kts | 211° |
| 2026-05-05 19:52 | 45.01271 | 5.15066 | 22917 ft | 313 kts | 211° |
| 2026-05-05 19:52 | 44.99389 | 5.13520 | 22915 ft | 313 kts | 211° |
| 2026-05-05 19:52 | 44.97520 | 5.11988 | 22915 ft | 313 kts | 211° |
| 2026-05-05 19:53 | 44.95045 | 5.09960 | 22916 ft | 311 kts | 211° |
| 2026-05-05 19:53 | 44.93170 | 5.08424 | 22914 ft | 312 kts | 211° |
| 2026-05-05 19:53 | 44.91914 | 5.07397 | 22915 ft | 312 kts | 211° |
| 2026-05-05 19:53 | 44.89423 | 5.05360 | 22915 ft | 312 kts | 212° |
| 2026-05-05 19:54 | 44.88211 | 5.04370 | 22912 ft | 310 kts | 211° |
| 2026-05-05 19:54 | 44.86333 | 5.02838 | 22915 ft | 312 kts | 211° |
| 2026-05-05 19:54 | 44.83831 | 5.00796 | 22915 ft | 313 kts | 212° |
| 2026-05-05 19:54 | 44.82572 | 4.99766 | 22898 ft | 310 kts | 212° |
| 2026-05-05 19:55 | 44.80090 | 4.97747 | 22909 ft | 308 kts | 212° |
| 2026-05-05 19:55 | 44.78855 | 4.96749 | 22904 ft | 305 kts | 210° |
| 2026-05-05 19:55 | 44.76446 | 4.94791 | 22898 ft | 298 kts | 212° |
| 2026-05-05 19:55 | 44.75275 | 4.93842 | 22925 ft | 297 kts | 212° |
| 2026-05-05 19:56 | 44.73504 | 4.92403 | 22925 ft | 295 kts | 212° |
| 2026-05-05 19:56 | 44.71122 | 4.90465 | 22919 ft | 296 kts | 212° |
| 2026-05-05 19:56 | 44.69341 | 4.89018 | 22918 ft | 296 kts | 212° |
| 2026-05-05 19:56 | 44.67542 | 4.87558 | 22919 ft | 295 kts | 212° |
| 2026-05-05 19:57 | 44.65753 | 4.86109 | 22920 ft | 296 kts | 212° |
| 2026-05-05 19:57 | 44.64567 | 4.85149 | 22918 ft | 296 kts | 212° |
| 2026-05-05 19:57 | 44.62781 | 4.83704 | 22920 ft | 296 kts | 212° |
| 2026-05-05 19:57 | 44.60384 | 4.81765 | 22922 ft | 297 kts | 212° |
| 2026-05-05 19:58 | 44.58588 | 4.80313 | 22923 ft | 298 kts | 212° |
| 2026-05-05 19:58 | 44.57376 | 4.79335 | 22925 ft | 299 kts | 212° |
| 2026-05-05 19:58 | 44.55554 | 4.77900 | 22920 ft | 300 kts | 209° |
| 2026-05-05 19:58 | 44.52961 | 4.76403 | 22924 ft | 301 kts | 204° |
| 2026-05-05 19:59 | 44.50997 | 4.75358 | 22927 ft | 301 kts | 204° |
| 2026-05-05 19:59 | 44.49035 | 4.74313 | 22929 ft | 301 kts | 204° |
| 2026-05-05 19:59 | 44.47065 | 4.73264 | 22929 ft | 302 kts | 204° |
| 2026-05-05 19:59 | 44.45091 | 4.72210 | 22929 ft | 302 kts | 204° |
| 2026-05-05 20:00 | 44.43769 | 4.71504 | 22928 ft | 302 kts | 204° |
| 2026-05-05 20:00 | 44.41139 | 4.70096 | 22930 ft | 303 kts | 204° |
| 2026-05-05 20:00 | 44.39164 | 4.69039 | 22930 ft | 303 kts | 204° |
| 2026-05-05 20:00 | 44.37224 | 4.67973 | 22929 ft | 303 kts | 206° |
| 2026-05-05 20:01 | 44.35273 | 4.66813 | 22931 ft | 302 kts | 206° |
| 2026-05-05 20:01 | 44.33342 | 4.65661 | 22934 ft | 303 kts | 206° |
| 2026-05-05 20:01 | 44.31406 | 4.64515 | 22933 ft | 302 kts | 206° |
| 2026-05-05 20:01 | 44.29456 | 4.63367 | 22883 ft | 305 kts | 206° |
| 2026-05-05 20:02 | 44.27469 | 4.62198 | 22650 ft | 310 kts | 206° |
| 2026-05-05 20:02 | 44.25488 | 4.61040 | 22473 ft | 306 kts | 206° |
| 2026-05-05 20:02 | 44.23530 | 4.59907 | 22451 ft | 300 kts | 206° |
| 2026-05-05 20:02 | 44.21606 | 4.58792 | 22193 ft | 300 kts | 206° |
| 2026-05-05 20:03 | 44.19686 | 4.57681 | 21843 ft | 300 kts | 206° |
| 2026-05-05 20:03 | 44.17756 | 4.56565 | 21462 ft | 300 kts | 205° |
| 2026-05-05 20:03 | 44.16456 | 4.55814 | 21202 ft | 300 kts | 205° |
| 2026-05-05 20:03 | 44.13871 | 4.54321 | 20676 ft | 301 kts | 205° |
| 2026-05-05 20:04 | 44.12588 | 4.53581 | 20413 ft | 301 kts | 205° |
| 2026-05-05 20:04 | 44.10005 | 4.52091 | 19883 ft | 301 kts | 205° |
| 2026-05-05 20:04 | 44.08070 | 4.50976 | 19485 ft | 301 kts | 205° |
| 2026-05-05 20:04 | 44.06136 | 4.49861 | 19091 ft | 301 kts | 205° |
| 2026-05-05 20:05 | 44.04196 | 4.48744 | 18693 ft | 301 kts | 205° |
| 2026-05-05 20:05 | 44.02269 | 4.47635 | 18297 ft | 300 kts | 205° |
| 2026-05-05 20:05 | 44.00974 | 4.46891 | 18033 ft | 300 kts | 205° |
| 2026-05-05 20:05 | 43.98405 | 4.45415 | 17507 ft | 299 kts | 205° |
| 2026-05-05 20:06 | 43.97127 | 4.44682 | 17245 ft | 299 kts | 205° |
| 2026-05-05 20:06 | 43.95214 | 4.43584 | 16853 ft | 298 kts | 204° |
| 2026-05-05 20:06 | 43.92661 | 4.42122 | 16330 ft | 297 kts | 204° |
| 2026-05-05 20:06 | 43.91370 | 4.41383 | 16072 ft | 297 kts | 204° |
| 2026-05-05 20:07 | 43.88903 | 4.39976 | 15516 ft | 287 kts | 204° |
| 2026-05-05 20:07 | 43.87055 | 4.38923 | 15141 ft | 282 kts | 204° |
| 2026-05-05 20:07 | 43.85847 | 4.38235 | 14900 ft | 283 kts | 203° |
| 2026-05-05 20:07 | 43.83397 | 4.36836 | 14404 ft | 286 kts | 203° |
| 2026-05-05 20:08 | 43.81548 | 4.35780 | 14029 ft | 288 kts | 203° |
| 2026-05-05 20:08 | 43.80299 | 4.35064 | 13776 ft | 288 kts | 203° |
| 2026-05-05 20:08 | 43.77920 | 4.33710 | 13285 ft | 284 kts | 202° |
| 2026-05-05 20:08 | 43.76693 | 4.33017 | 13032 ft | 282 kts | 202° |
| 2026-05-05 20:09 | 43.74882 | 4.31988 | 12666 ft | 280 kts | 202° |
| 2026-05-05 20:09 | 43.72482 | 4.30625 | 12160 ft | 278 kts | 201° |
| 2026-05-05 20:09 | 43.70692 | 4.29611 | 11759 ft | 277 kts | 201° |
| 2026-05-05 20:09 | 43.68961 | 4.28633 | 11848 ft | 250 kts | 201° |
| 2026-05-05 20:10 | 43.67392 | 4.27746 | 11602 ft | 257 kts | 201° |
| 2026-05-05 20:10 | 43.66250 | 4.27103 | 11141 ft | 267 kts | 201° |
| 2026-05-05 20:10 | 43.64530 | 4.26127 | 10543 ft | 268 kts | 202° |
| 2026-05-05 20:10 | 43.62760 | 4.25296 | 9930 ft | 269 kts | 190° |
| 2026-05-05 20:11 | 43.60282 | 4.25472 | 9195 ft | 268 kts | 173° |
| 2026-05-05 20:11 | 43.59067 | 4.25719 | 8828 ft | 266 kts | 173° |
| 2026-05-05 20:11 | 43.57251 | 4.26088 | 8278 ft | 263 kts | 173° |
| 2026-05-05 20:11 | 43.54857 | 4.26601 | 7534 ft | 258 kts | 173° |
| 2026-05-05 20:12 | 43.53089 | 4.26988 | 6977 ft | 254 kts | 173° |
| 2026-05-05 20:12 | 43.51365 | 4.27376 | 6424 ft | 251 kts | 173° |
| 2026-05-05 20:12 | 43.50234 | 4.27632 | 6069 ft | 248 kts | 173° |
| 2026-05-05 20:12 | 43.48554 | 4.28022 | 5666 ft | 240 kts | 172° |
| 2026-05-05 20:13 | 43.46962 | 4.28396 | 5269 ft | 230 kts | 172° |
| 2026-05-05 20:13 | 43.44910 | 4.28883 | 4747 ft | 221 kts | 172° |
| 2026-05-05 20:13 | 43.43899 | 4.29124 | 4496 ft | 219 kts | 172° |
| 2026-05-05 20:13 | 43.41946 | 4.29589 | 4125 ft | 209 kts | 172° |
| 2026-05-05 20:14 | 43.41006 | 4.29816 | 3968 ft | 206 kts | 172° |
| 2026-05-05 20:14 | 43.39154 | 4.30245 | 3650 ft | 199 kts | 176° |
| 2026-05-05 20:14 | 43.38261 | 4.30150 | 3472 ft | 194 kts | 198° |
| 2026-05-05 20:14 | 43.37207 | 4.29077 | 3247 ft | 188 kts | 235° |
| 2026-05-05 20:15 | 43.36910 | 4.27364 | 3134 ft | 190 kts | 273° |
| 2026-05-05 20:15 | 43.37834 | 4.25307 | 2994 ft | 201 kts | 324° |
| 2026-05-05 20:15 | 43.38665 | 4.24717 | 2949 ft | 202 kts | 333° |
| 2026-05-05 20:15 | 43.40367 | 4.23625 | 2839 ft | 203 kts | 332° |
| 2026-05-05 20:16 | 43.41221 | 4.23069 | 2778 ft | 204 kts | 332° |
| 2026-05-05 20:16 | 43.42512 | 4.22238 | 2691 ft | 205 kts | 332° |
| 2026-05-05 20:16 | 43.43816 | 4.21392 | 2597 ft | 207 kts | 332° |
| 2026-05-05 20:16 | 43.45553 | 4.20263 | 2471 ft | 209 kts | 332° |
| 2026-05-05 20:17 | 43.46401 | 4.19604 | 2394 ft | 207 kts | 320° |
| 2026-05-05 20:17 | 43.47295 | 4.18099 | 2294 ft | 202 kts | 298° |
| 2026-05-05 20:17 | 43.48049 | 4.16463 | 2218 ft | 204 kts | 302° |
| 2026-05-05 20:17 | 43.49132 | 4.14390 | 2101 ft | 204 kts | 303° |
| 2026-05-05 20:18 | 43.49671 | 4.13340 | 2098 ft | 201 kts | 303° |
| 2026-05-05 20:18 | 43.50480 | 4.11740 | 2036 ft | 202 kts | 302° |
| 2026-05-05 20:18 | 43.51280 | 4.10164 | 2013 ft | 199 kts | 302° |
| 2026-05-05 20:18 | 43.52070 | 4.08604 | 1883 ft | 201 kts | 302° |
| 2026-05-05 20:19 | 43.52860 | 4.07032 | 1568 ft | 199 kts | 303° |
| 2026-05-05 20:19 | 43.53617 | 4.05533 | 1362 ft | 182 kts | 303° |
| 2026-05-05 20:19 | 43.54326 | 4.04138 | 1105 ft | 174 kts | 304° |
| 2026-05-05 20:19 | 43.54981 | 4.02818 | 832 ft | 158 kts | 304° |
| 2026-05-05 20:20 | 43.55564 | 4.01645 | 610 ft | 139 kts | 304° |
| 2026-05-05 20:20 | 43.56259 | 4.00262 | 377 ft | 124 kts | 304° |
| 2026-05-05 20:20 | 43.56570 | 3.99632 | 248 ft | 117 kts | 303° |
| 2026-05-05 20:20 | 43.57012 | 3.98746 | 109 ft | 109 kts | 305° |
| 2026-05-05 20:21 | 43.57440 | 3.97891 | 12 ft | 106 kts | 304° |
| 2026-05-05 20:21 | 43.57789 | 3.97205 | 11 ft | 60 kts | 305° |
| 2026-05-05 20:21 | 43.57965 | 3.96858 | 11 ft | 34 kts | 304° |
| 2026-05-05 20:21 | 43.58082 | 3.96627 | 14 ft | 26 kts | 304° |
| 2026-05-05 20:22 | 43.58159 | 3.96472 | 14 ft | 22 kts | 304° |
| 2026-05-05 20:22 | 43.58238 | 3.96312 | 15 ft | 20 kts | 304° |
| 2026-05-05 20:22 | 43.58308 | 3.96172 | 17 ft | 13 kts | 296° |
| 2026-05-05 20:22 | 43.58297 | 3.96059 | 17 ft | 8 kts | 244° |
| 2026-05-05 20:23 | 43.58281 | 3.96012 | 17 ft | 9 kts | 244° |
| 2026-05-05 20:23 | 43.58273 | 3.95990 | 17 ft | 0 kts | 245° |
| 2026-05-05 20:24 | 43.58267 | 3.95972 | 18 ft | 4 kts | 245° |
| 2026-05-05 20:25 | 43.58240 | 3.95903 | 19 ft | 13 kts | 244° |
| 2026-05-05 20:25 | 43.58207 | 3.95804 | 21 ft | 9 kts | 238° |
| 2026-05-05 20:25 | 43.58115 | 3.95794 | 21 ft | 14 kts | 130° |
| 2026-05-05 20:25 | 43.58082 | 3.95861 | 21 ft | 11 kts | 124° |
| 2026-05-05 20:26 | 43.58042 | 3.95890 | 21 ft | 7 kts | 204° |
| 2026-05-05 20:26 | 43.58008 | 3.95859 | 21 ft | 4 kts | 216° |
| 2026-05-05 20:26 | 43.58007 | 3.95858 | 21 ft | 0 kts | 215° |